Time;durP1;ratioP1;P1;durP2;ratioP2;P2;SDS_P1;SDS_P2;PMS_P1;PMS_P2;Temp;Humidity;BMP_temperature;BMP_pressure;BME280_temperature;BME280_humidity;BME280_pressure;Samples;Min_cycle;Max_cycle;Signal;HPM_P1;HPM_P2
2023/08/29 00:01:10;;;;;;;;;;;;;;;16.78;74.12;100858.51;105593;1270;125184;-82
2023/08/29 00:03:37;;;;;;;;;;;;;;;16.77;74.03;100849.46;105744;1273;61259;-81
2023/08/29 00:06:04;;;;;;;;;;;;;;;16.75;74.13;100836.52;105682;1270;61227;-81
2023/08/29 00:08:32;;;;;;;;;;;;;;;16.72;74.09;100828.90;105658;1271;124692;-83
2023/08/29 00:10:59;;;;;;;;;;;;;;;16.72;74.10;100838.48;105846;1273;66412;-81
2023/08/29 00:13:26;;;;;;;;;;;;;;;16.69;74.08;100857.23;105703;1269;124402;-82
2023/08/29 00:15:52;;;;;;;;;;;;;;;16.69;74.22;100865.40;105624;1270;61364;-81
2023/08/29 00:18:19;;;;;;;;;;;;;;;16.72;74.45;100863.80;105830;1273;61246;-82
2023/08/29 00:20:46;;;;;;;;;;;;;;;16.74;74.51;100858.66;105771;1272;124260;-82
2023/08/29 00:23:12;;;;;;;;;;;;;;;16.74;74.44;100859.90;105878;1270;66356;-83
2023/08/29 00:25:39;;;;;;;;;;;;;;;16.74;74.59;100860.98;105695;1270;125295;-83
2023/08/29 00:28:06;;;;;;;;;;;;;;;16.72;74.61;100848.58;105741;1270;61265;-83
2023/08/29 00:30:35;;;;;;;;;;;;;;;16.68;74.67;100837.58;105904;1271;61413;-82
2023/08/29 00:33:04;;;;;;;;;;;;;;;16.64;74.71;100836.52;106090;1267;76879;-83
2023/08/29 00:35:31;;;;;;;;;;;;;;;16.63;74.78;100837.39;105697;1271;64860;-83
2023/08/29 00:37:58;;;;;;;;;;;;;;;16.63;74.81;100833.31;105688;1267;125811;-84
2023/08/29 00:40:27;;;;;;;;;;;;;;;16.60;74.79;100835.09;105703;1270;61710;-82
2023/08/29 00:42:55;;;;;;;;;;;;;;;16.58;74.81;100829.06;105749;1270;125131;-85
2023/08/29 00:45:22;;;;;;;;;;;;;;;16.60;74.88;100808.16;105858;1273;73594;-85
2023/08/29 00:47:48;;;;;;;;;;;;;;;16.58;74.87;100796.46;105816;1270;64272;-84
2023/08/29 00:50:15;;;;;;;;;;;;;;;16.54;74.91;100795.75;105734;1270;125081;-83
2023/08/29 00:52:41;;;;;;;;;;;;;;;16.55;74.96;100791.31;105735;1270;61375;-83
2023/08/29 00:55:08;;;;;;;;;;;;;;;16.54;75.06;100768.48;105622;1271;125418;-81
2023/08/29 00:57:35;;;;;;;;;;;;;;;16.53;75.11;100750.92;105779;1270;74728;-83
2023/08/29 01:00:05;;;;;;;;;;;;;;;16.54;75.23;100744.38;105518;1276;66344;-83
2023/08/29 01:02:31;;;;;;;;;;;;;;;16.54;75.32;100735.70;105676;1271;126694;-82
2023/08/29 01:05:00;;;;;;;;;;;;;;;16.53;75.34;100740.84;105782;1270;61317;-83
2023/08/29 01:07:26;;;;;;;;;;;;;;;16.52;75.48;100739.77;105758;1269;125250;-84
2023/08/29 01:09:53;;;;;;;;;;;;;;;16.51;75.63;100727.55;105745;1271;73409;-84
2023/08/29 01:12:19;;;;;;;;;;;;;;;16.52;75.83;100733.22;105839;1270;64876;-83
2023/08/29 01:14:55;;;;;;;;;;;;;;;16.50;75.85;100748.62;105685;1270;124910;-82
2023/08/29 01:17:42;;;;;;;;;;;;;;;16.50;75.92;100737.12;105700;1269;60386;-83
2023/08/29 01:20:08;;;;;;;;;;;;;;;16.51;76.05;100729.85;105810;1273;126657;-84
2023/08/29 01:22:54;;;;;;;;;;;;;;;16.51;76.06;100749.69;105813;1271;74573;-83
2023/08/29 01:25:31;;;;;;;;;;;;;;;16.49;76.09;100781.04;105795;1269;125303;-84
2023/08/29 01:27:58;;;;;;;;;;;;;;;16.53;76.28;100799.65;105887;1270;72739;-84
2023/08/29 01:30:25;;;;;;;;;;;;;;;16.59;76.46;100809.58;105716;1275;61393;-84
2023/08/29 01:32:52;;;;;;;;;;;;;;;16.64;76.44;100818.79;105570;1270;125404;-83
2023/08/29 01:35:18;;;;;;;;;;;;;;;16.69;76.59;100831.73;105789;1270;74697;-84
2023/08/29 01:37:45;;;;;;;;;;;;;;;16.75;76.69;100840.23;105647;1273;125457;-84
2023/08/29 01:40:11;;;;;;;;;;;;;;;16.79;76.81;100840.08;105871;1272;61147;-85
2023/08/29 01:42:38;;;;;;;;;;;;;;;16.82;76.77;100817.58;105813;1271;126149;-83
2023/08/29 01:45:05;;;;;;;;;;;;;;;16.83;76.58;100777.71;105816;1271;61317;-84
2023/08/29 01:47:31;;;;;;;;;;;;;;;16.81;76.53;100748.27;105769;1270;74804;-83
2023/08/29 01:49:58;;;;;;;;;;;;;;;16.71;76.47;100752.52;105728;1268;125157;-83
2023/08/29 01:52:25;;;;;;;;;;;;;;;16.64;76.53;100755.02;105811;1270;71556;-84
2023/08/29 01:54:51;;;;;;;;;;;;;;;16.65;76.79;100747.21;105663;1270;125098;-83
2023/08/29 01:57:18;;;;;;;;;;;;;;;16.62;76.70;100745.44;105585;1270;61263;-84
2023/08/29 01:59:44;;;;;;;;;;;;;;;16.57;76.84;100751.99;105745;1270;73277;-84
2023/08/29 02:02:13;;;;;;;;;;;;;;;16.54;76.96;100748.81;105780;1272;125771;-84
2023/08/29 02:04:39;;;;;;;;;;;;;;;16.51;77.04;100743.85;106000;1270;71481;-82
2023/08/29 02:07:06;;;;;;;;;;;;;;;16.55;77.24;100741.38;105675;1270;125349;-82
2023/08/29 02:09:32;;;;;;;;;;;;;;;16.56;77.22;100744.56;105864;1270;61368;-81
2023/08/29 02:11:59;;;;;;;;;;;;;;;16.53;77.29;100748.27;105831;1274;73605;-80
2023/08/29 02:14:25;;;;;;;;;;;;;;;16.56;77.49;100754.30;105558;1276;125851;-83
2023/08/29 02:16:52;;;;;;;;;;;;;;;16.60;77.52;100755.35;105893;1270;61278;-81
2023/08/29 02:19:19;;;;;;;;;;;;;;;16.63;77.58;100760.50;105764;1270;125101;-82
2023/08/29 02:21:46;;;;;;;;;;;;;;;16.65;77.69;100763.15;106011;1270;61227;-82
2023/08/29 02:24:12;;;;;;;;;;;;;;;16.67;77.67;100759.63;105909;1271;74758;-82
2023/08/29 02:26:39;;;;;;;;;;;;;;;16.67;77.61;100750.59;105861;1273;125357;-83
2023/08/29 02:29:05;;;;;;;;;;;;;;;16.65;77.69;100748.63;105790;1270;72724;-83
2023/08/29 02:31:32;;;;;;;;;;;;;;;16.65;77.87;100761.02;105652;1270;124960;-82
2023/08/29 02:33:58;;;;;;;;;;;;;;;16.68;77.94;100768.48;105795;1269;60655;-83
2023/08/29 02:36:25;;;;;;;;;;;;;;;16.68;77.92;100764.39;105801;1272;74913;-82
2023/08/29 02:38:53;;;;;;;;;;;;;;;16.68;77.90;100748.27;105765;1270;125004;-82
2023/08/29 02:41:20;;;;;;;;;;;;;;;16.69;78.08;100743.14;105818;1273;71515;-83
2023/08/29 02:43:46;;;;;;;;;;;;;;;16.71;78.24;100750.76;105709;1270;125488;-83
2023/08/29 02:46:14;;;;;;;;;;;;;;;16.73;78.30;100762.63;105867;1268;60247;-82
2023/08/29 02:48:40;;;;;;;;;;;;;;;16.76;78.36;100768.30;105790;1271;125193;-81
2023/08/29 02:51:07;;;;;;;;;;;;;;;16.79;78.40;100769.19;105820;1270;61429;-82
2023/08/29 02:53:33;;;;;;;;;;;;;;;16.80;78.54;100768.82;105861;1268;72738;-81
2023/08/29 02:56:00;;;;;;;;;;;;;;;16.83;78.71;100764.08;105862;1270;124804;-79
2023/08/29 02:58:27;;;;;;;;;;;;;;;16.85;78.82;100755.57;105869;1271;61272;-78
2023/08/29 03:00:55;;;;;;;;;;;;;;;16.82;78.81;100757.33;105774;1271;125116;-78
2023/08/29 03:03:23;;;;;;;;;;;;;;;16.82;78.93;100747.23;105942;1271;66306;-79
2023/08/29 03:05:58;;;;;;;;;;;;;;;16.81;78.96;100731.98;105906;1270;71166;-80
2023/08/29 03:08:25;;;;;;;;;;;;;;;16.79;78.98;100719.74;105863;1270;124743;-80
2023/08/29 03:10:52;;;;;;;;;;;;;;;16.78;79.21;100710.17;105916;1270;62034;-80
2023/08/29 03:13:19;;;;;;;;;;;;;;;16.79;79.23;100702.91;105843;1270;125367;-80
2023/08/29 03:15:46;;;;;;;;;;;;;;;16.76;79.22;100700.43;105428;1270;66394;-80
2023/08/29 03:18:12;;;;;;;;;;;;;;;16.76;79.39;100700.61;105916;1270;72448;-81
2023/08/29 03:20:39;;;;;;;;;;;;;;;16.76;79.53;100696.17;105776;1270;126253;-81
2023/08/29 03:23:06;;;;;;;;;;;;;;;16.75;79.50;100692.81;105845;1270;61170;-80
2023/08/29 03:25:32;;;;;;;;;;;;;;;16.70;79.35;100685.19;105752;1271;124906;-80
2023/08/29 03:27:59;;;;;;;;;;;;;;;16.66;79.45;100682.19;105891;1271;66745;-81
2023/08/29 03:30:26;;;;;;;;;;;;;;;16.66;79.67;100686.27;105802;1270;73055;-81
2023/08/29 03:32:53;;;;;;;;;;;;;;;16.67;79.71;100681.48;105829;1270;125276;-81
2023/08/29 03:35:20;;;;;;;;;;;;;;;16.68;79.79;100680.41;105762;1270;60335;-81
2023/08/29 03:37:46;;;;;;;;;;;;;;;16.71;79.85;100674.91;105840;1273;125389;-81
2023/08/29 03:40:13;;;;;;;;;;;;;;;16.68;79.59;100669.42;105783;1271;66268;-81
2023/08/29 03:42:39;;;;;;;;;;;;;;;16.65;79.59;100659.88;105678;1270;125498;-81
2023/08/29 03:45:06;;;;;;;;;;;;;;;16.64;79.53;100652.79;105889;1270;61221;-80
2023/08/29 03:47:33;;;;;;;;;;;;;;;16.61;79.45;100649.95;105808;1267;61294;-82
2023/08/29 03:50:00;;;;;;;;;;;;;;;16.59;79.45;100644.83;105749;1271;125670;-81
2023/08/29 03:52:26;;;;;;;;;;;;;;;16.59;79.48;100637.38;105896;1273;65188;-79
2023/08/29 03:54:53;;;;;;;;;;;;;;;16.59;79.57;100616.64;104974;1270;125251;-79
2023/08/29 03:57:20;;;;;;;;;;;;;;;16.59;79.47;100610.98;104957;1276;61438;-80
2023/08/29 03:59:47;;;;;;;;;;;;;;;16.53;79.39;100618.25;105091;1268;61370;-80
2023/08/29 04:02:13;;;;;;;;;;;;;;;16.47;79.39;100619.69;105741;1273;124973;-80
2023/08/29 04:04:43;;;;;;;;;;;;;;;16.45;79.52;100628.71;105899;1270;66270;-80
2023/08/29 04:07:10;;;;;;;;;;;;;;;16.45;79.59;100638.81;105790;1271;125055;-81
2023/08/29 04:09:37;;;;;;;;;;;;;;;16.45;79.48;100650.33;105883;1275;61262;-80
2023/08/29 04:12:04;;;;;;;;;;;;;;;16.46;79.64;100658.66;105756;1270;61419;-80
2023/08/29 04:14:31;;;;;;;;;;;;;;;16.49;79.72;100666.08;105814;1268;125040;-81
2023/08/29 04:16:58;;;;;;;;;;;;;;;16.54;79.66;100668.21;105782;1271;66146;-80
2023/08/29 04:19:25;;;;;;;;;;;;;;;16.53;79.75;100672.98;105801;1271;125352;-80
2023/08/29 04:21:51;;;;;;;;;;;;;;;16.54;79.90;100678.13;105882;1269;61614;-80
2023/08/29 04:24:18;;;;;;;;;;;;;;;16.55;79.89;100686.45;105843;1271;61554;-79
2023/08/29 04:26:44;;;;;;;;;;;;;;;16.60;80.00;100707.35;105758;1269;125118;-80
2023/08/29 04:29:11;;;;;;;;;;;;;;;16.63;80.03;100722.23;105974;1270;66046;-80
2023/08/29 04:31:37;;;;;;;;;;;;;;;16.63;80.01;100731.09;105788;1271;126275;-80
2023/08/29 04:34:04;;;;;;;;;;;;;;;16.64;80.12;100736.77;105816;1270;61534;-80
2023/08/29 04:36:31;;;;;;;;;;;;;;;16.63;80.08;100737.98;105937;1268;60584;-79
2023/08/29 04:38:57;;;;;;;;;;;;;;;16.62;80.06;100734.98;105776;1269;124889;-80
2023/08/29 04:41:24;;;;;;;;;;;;;;;16.61;80.04;100729.49;105759;1270;65051;-80
2023/08/29 04:43:50;;;;;;;;;;;;;;;16.60;80.03;100719.75;105673;1271;125406;-80
2023/08/29 04:46:17;;;;;;;;;;;;;;;16.57;79.95;100694.25;105811;1269;59862;-80
2023/08/29 04:48:43;;;;;;;;;;;;;;;16.51;79.85;100652.27;105856;1270;125189;-79
2023/08/29 04:51:10;;;;;;;;;;;;;;;16.46;79.81;100599.48;105954;1268;74563;-80
2023/08/29 04:53:37;;;;;;;;;;;;;;;16.32;79.45;100553.30;105834;1276;64838;-82
2023/08/29 04:56:04;;;;;;;;;;;;;;;16.17;79.79;100556.48;105650;1276;125063;-82
2023/08/29 04:58:31;;;;;;;;;;;;;;;16.11;80.19;100605.70;105900;1271;61253;-84
2023/08/29 05:00:57;;;;;;;;;;;;;;;16.14;80.35;100644.11;105780;1268;125227;-81
2023/08/29 05:03:24;;;;;;;;;;;;;;;16.19;80.71;100631.91;105953;1268;74773;-79
2023/08/29 05:05:53;;;;;;;;;;;;;;;16.25;80.71;100592.25;105831;1273;65118;-83
2023/08/29 05:08:20;;;;;;;;;;;;;;;16.20;80.35;100585.35;105753;1272;124910;-83
2023/08/29 05:10:46;;;;;;;;;;;;;;;16.10;80.25;100583.05;105820;1270;61289;-83
2023/08/29 05:13:13;;;;;;;;;;;;;;;16.08;80.64;100623.07;105737;1269;124283;-84
2023/08/29 05:15:39;;;;;;;;;;;;;;;16.15;81.06;100687.67;105682;1271;74706;-84
2023/08/29 05:18:06;;;;;;;;;;;;;;;16.18;80.92;100717.77;105701;1270;64453;-83
2023/08/29 05:20:32;;;;;;;;;;;;;;;16.18;81.05;100714.05;105653;1270;128969;-83
2023/08/29 05:22:59;;;;;;;;;;;;;;;16.19;80.96;100703.80;105687;1271;61377;-83
2023/08/29 05:25:26;;;;;;;;;;;;;;;16.21;81.12;100697.78;105830;1273;126617;-84
2023/08/29 05:27:52;;;;;;;;;;;;;;;16.25;81.28;100688.04;105821;1271;74555;-84
2023/08/29 05:30:19;;;;;;;;;;;;;;;16.27;81.26;100671.74;105697;1270;66357;-83
2023/08/29 05:32:45;;;;;;;;;;;;;;;16.28;81.23;100675.48;105880;1271;124827;-84
2023/08/29 05:35:12;;;;;;;;;;;;;;;16.31;81.31;100688.40;105797;1268;61163;-84
2023/08/29 05:37:38;;;;;;;;;;;;;;;16.33;81.29;100675.48;105769;1267;124913;-82
2023/08/29 05:40:06;;;;;;;;;;;;;;;16.36;81.49;100657.42;105891;1268;75723;-84
2023/08/29 05:42:33;;;;;;;;;;;;;;;16.40;81.54;100651.39;105801;1271;65031;-84
2023/08/29 05:44:59;;;;;;;;;;;;;;;16.39;81.13;100624.65;105603;1275;124964;-81
2023/08/29 05:47:26;;;;;;;;;;;;;;;16.32;80.75;100581.09;105803;1276;61496;-81
2023/08/29 05:49:52;;;;;;;;;;;;;;;16.23;80.90;100553.48;105789;1271;124906;-82
2023/08/29 05:52:19;;;;;;;;;;;;;;;16.15;80.85;100558.80;106087;1269;74636;-81
2023/08/29 05:54:46;;;;;;;;;;;;;;;16.12;81.17;100586.42;105816;1271;125564;-82
2023/08/29 05:57:13;;;;;;;;;;;;;;;16.13;81.17;100602.52;105724;1271;74565;-83
2023/08/29 05:59:40;;;;;;;;;;;;;;;16.13;81.29;100606.77;105730;1273;61306;-81
2023/08/29 06:02:06;;;;;;;;;;;;;;;16.16;81.27;100594.20;105785;1271;125012;-84
2023/08/29 06:04:33;;;;;;;;;;;;;;;16.15;81.21;100578.45;105859;1273;73245;-83
2023/08/29 06:06:59;;;;;;;;;;;;;;;16.13;81.11;100558.97;105934;1271;125257;-82
2023/08/29 06:09:26;;;;;;;;;;;;;;;16.13;81.25;100536.67;105936;1268;73819;-81
2023/08/29 06:11:53;;;;;;;;;;;;;;;16.15;81.46;100526.75;105978;1273;61301;-83
2023/08/29 06:14:19;;;;;;;;;;;;;;;16.14;81.26;100536.85;105809;1273;125335;-82
2023/08/29 06:16:46;;;;;;;;;;;;;;;16.14;81.30;100535.44;105871;1270;74463;-82
2023/08/29 06:19:12;;;;;;;;;;;;;;;16.15;81.45;100526.23;105749;1270;125250;-82
2023/08/29 06:21:39;;;;;;;;;;;;;;;16.15;81.45;100525.52;105794;1276;71595;-81
2023/08/29 06:24:06;;;;;;;;;;;;;;;16.17;81.61;100540.39;105741;1274;61394;-82
2023/08/29 06:26:32;;;;;;;;;;;;;;;16.21;81.55;100555.43;105544;1271;125164;-83
2023/08/29 06:28:59;;;;;;;;;;;;;;;16.24;81.68;100559.14;105846;1267;75011;-81
2023/08/29 06:31:25;;;;;;;;;;;;;;;16.27;81.81;100562.86;105738;1273;125552;-81
2023/08/29 06:33:52;;;;;;;;;;;;;;;16.30;81.74;100566.23;105795;1271;72715;-82
2023/08/29 06:36:19;;;;;;;;;;;;;;;16.29;81.79;100561.09;105847;1271;61289;-82
2023/08/29 06:38:45;;;;;;;;;;;;;;;16.33;81.94;100556.66;105759;1270;126096;-84
2023/08/29 06:41:12;;;;;;;;;;;;;;;16.32;81.96;100548.15;105972;1271;74762;-82
2023/08/29 06:43:38;;;;;;;;;;;;;;;16.33;82.09;100551.17;105826;1271;125431;-81
2023/08/29 06:46:05;;;;;;;;;;;;;;;16.36;82.28;100549.73;105849;1269;72936;-83
2023/08/29 06:48:32;;;;;;;;;;;;;;;16.39;82.37;100539.46;105922;1271;60618;-82
2023/08/29 06:50:58;;;;;;;;;;;;;;;16.43;82.42;100533.61;105769;1271;124661;-83
2023/08/29 06:53:26;;;;;;;;;;;;;;;16.45;82.49;100534.13;105807;1272;74045;-83
2023/08/29 06:55:53;;;;;;;;;;;;;;;16.49;82.63;100528.63;105758;1274;125018;-81
2023/08/29 06:58:19;;;;;;;;;;;;;;;16.52;82.60;100525.61;105849;1270;72571;-82
2023/08/29 07:00:46;;;;;;;;;;;;;;;16.55;82.67;100516.05;105737;1271;125021;-80
2023/08/29 07:03:13;;;;;;;;;;;;;;;16.57;82.89;100502.03;105819;1270;61301;-84
2023/08/29 07:05:40;;;;;;;;;;;;;;;16.61;82.79;100497.41;105750;1268;73365;-83
2023/08/29 07:08:07;;;;;;;;;;;;;;;16.62;82.97;100507.14;105606;1271;124848;-85
2023/08/29 07:10:33;;;;;;;;;;;;;;;16.64;82.97;100511.05;105853;1273;71937;-85
2023/08/29 07:13:00;;;;;;;;;;;;;;;16.67;82.96;100508.91;105707;1271;124981;-85
2023/08/29 07:15:26;;;;;;;;;;;;;;;16.68;83.01;100502.16;105706;1273;61224;-86
2023/08/29 07:17:53;;;;;;;;;;;;;;;16.71;83.32;100504.47;105863;1271;73970;-84
2023/08/29 07:20:20;;;;;;;;;;;;;;;16.75;83.32;100501.80;105861;1268;125193;-85
2023/08/29 07:22:47;;;;;;;;;;;;;;;16.77;83.28;100494.70;105910;1271;72416;-85
2023/08/29 07:25:13;;;;;;;;;;;;;;;16.80;83.43;100488.14;105894;1273;125210;-85
2023/08/29 07:27:40;;;;;;;;;;;;;;;16.84;83.40;100486.73;105864;1271;59261;-85
2023/08/29 07:30:07;;;;;;;;;;;;;;;16.87;83.45;100482.45;105817;1273;74771;-86
2023/08/29 07:32:34;;;;;;;;;;;;;;;16.87;83.28;100482.61;105532;1270;125647;-83
2023/08/29 07:35:16;;;;;;;;;;;;;;;16.91;83.31;100487.74;105707;1271;72732;-83
2023/08/29 07:37:42;;;;;;;;;;;;;;;16.96;83.41;100495.87;105624;1271;125653;-83
2023/08/29 07:40:09;;;;;;;;;;;;;;;16.98;83.27;100497.98;105829;1270;61403;-85
2023/08/29 07:42:36;;;;;;;;;;;;;;;17.01;83.34;100493.73;105734;1272;124998;-87
2023/08/29 07:45:03;;;;;;;;;;;;;;;17.06;83.52;100499.19;105533;1270;225913;-78
2023/08/29 07:47:29;;;;;;;;;;;;;;;17.11;83.47;100497.91;105187;1270;71416;-78
2023/08/29 07:49:56;;;;;;;;;;;;;;;17.16;83.50;100501.61;105494;1271;124806;-79
2023/08/29 07:52:23;;;;;;;;;;;;;;;17.21;83.52;100508.33;105871;1272;60123;-79
2023/08/29 07:54:49;;;;;;;;;;;;;;;17.25;83.50;100509.54;105754;1271;125033;-78
2023/08/29 07:57:16;;;;;;;;;;;;;;;17.29;83.45;100507.55;105839;1273;67414;-78
2023/08/29 07:59:42;;;;;;;;;;;;;;;17.34;83.56;100499.37;105685;1270;72662;-81
2023/08/29 08:02:09;;;;;;;;;;;;;;;17.39;83.44;100489.77;105666;1273;124851;-81
2023/08/29 08:04:36;;;;;;;;;;;;;;;17.44;83.22;100475.89;105401;1271;61448;-78
2023/08/29 08:07:03;;;;;;;;;;;;;;;17.46;83.06;100475.86;105597;1274;125206;-83
2023/08/29 08:09:31;;;;;;;;;;;;;;;17.46;82.76;100478.52;105801;1270;66584;-80
2023/08/29 08:11:58;;;;;;;;;;;;;;;17.50;82.81;100488.61;105811;1275;72775;-89
2023/08/29 08:14:25;;;;;;;;;;;;;;;17.54;82.74;100496.39;105692;1269;124816;-87
2023/08/29 08:16:51;;;;;;;;;;;;;;;17.59;82.80;100491.57;105768;1270;61263;-82
2023/08/29 08:19:18;;;;;;;;;;;;;;;17.61;82.66;100488.88;105571;1271;124087;-83
2023/08/29 08:21:45;;;;;;;;;;;;;;;17.62;82.58;100490.29;105787;1270;65017;-87
2023/08/29 08:24:11;;;;;;;;;;;;;;;17.64;82.70;100498.98;105726;1270;72377;-84
2023/08/29 08:26:38;;;;;;;;;;;;;;;17.65;82.57;100491.86;105446;1271;125121;-87
2023/08/29 08:29:04;;;;;;;;;;;;;;;17.67;82.61;100479.79;105737;1270;60010;-87
2023/08/29 08:31:31;;;;;;;;;;;;;;;17.69;82.65;100476.20;105719;1269;124813;-86
2023/08/29 08:33:58;;;;;;;;;;;;;;;17.72;82.63;100480.27;105925;1274;65041;-89
2023/08/29 08:36:24;;;;;;;;;;;;;;;17.74;82.54;100472.63;105912;1271;71464;-86
2023/08/29 08:38:51;;;;;;;;;;;;;;;17.75;82.31;100464.10;105865;1268;125572;-85
2023/08/29 08:41:17;;;;;;;;;;;;;;;17.73;82.20;100463.58;105873;1270;61279;-84
2023/08/29 08:43:44;;;;;;;;;;;;;;;17.69;82.13;100462.91;105733;1271;125949;-81
2023/08/29 08:46:14;;;;;;;;;;;;;;;17.65;82.21;100442.17;105934;1276;66363;-79
2023/08/29 08:48:41;;;;;;;;;;;;;;;17.65;82.30;100438.09;105780;1274;128913;-78
2023/08/29 08:51:08;;;;;;;;;;;;;;;17.66;82.36;100443.94;106035;1273;61310;-76
2023/08/29 08:53:36;;;;;;;;;;;;;;;17.67;82.41;100467.00;104817;1273;61371;-80
2023/08/29 08:56:05;;;;;;;;;;;;;;;17.66;82.42;100481.39;104916;1273;124822;-79
2023/08/29 08:58:31;;;;;;;;;;;;;;;17.66;82.57;100491.33;105051;1272;61269;-77
2023/08/29 09:00:58;;;;;;;;;;;;;;;17.70;82.73;100490.04;104960;1274;125137;-77
2023/08/29 09:03:24;;;;;;;;;;;;;;;17.77;82.70;100492.12;105077;1274;61260;-78
2023/08/29 09:05:51;;;;;;;;;;;;;;;17.81;82.63;100488.00;105077;1270;59360;-81
2023/08/29 09:08:19;;;;;;;;;;;;;;;17.85;82.62;100486.92;104880;1276;125050;-77
2023/08/29 09:10:46;;;;;;;;;;;;;;;17.86;82.69;100483.02;104963;1277;65163;-80
2023/08/29 09:13:19;;;;;;;;;;;;;;;17.88;82.72;100481.93;104806;1274;125275;-77
2023/08/29 09:15:46;;;;;;;;;;;;;;;17.93;82.64;100480.84;108122;1269;59485;-79
2023/08/29 09:18:14;;;;;;;;;;;;;;;17.98;82.67;100477.95;108031;1271;59867;-79
2023/08/29 09:20:43;;;;;;;;;;;;;;;17.99;82.58;100472.42;105206;1271;125634;-79
2023/08/29 09:23:24;;;;;;;;;;;;;;;18.01;82.50;100486.95;104879;1271;66088;-80
2023/08/29 09:25:54;;;;;;;;;;;;;;;18.04;82.54;100495.44;104992;1275;124870;-82
2023/08/29 09:28:21;;;;;;;;;;;;;;;18.10;82.36;100489.36;105840;1269;59689;-79
2023/08/29 09:30:48;;;;;;;;;;;;;;;18.11;82.22;100496.63;105766;1276;124946;-79
2023/08/29 09:33:18;;;;;;;;;;;;;;;18.09;82.02;100495.23;104941;1276;74307;-78
2023/08/29 09:35:46;;;;;;;;;;;;;;;18.09;82.09;100492.92;105079;1273;66334;-79
2023/08/29 09:38:23;;;;;;;;;;;;;;;18.14;81.93;100495.71;104945;1276;125280;-76
2023/08/29 09:40:55;;;;;;;;;;;;;;;18.18;81.96;100495.13;105010;1268;61444;-76
2023/08/29 09:43:21;;;;;;;;;;;;;;;18.22;81.88;100497.92;104926;1272;125072;-79
2023/08/29 09:45:58;;;;;;;;;;;;;;;18.22;81.63;100500.41;105592;1274;74726;-77
2023/08/29 09:48:24;;;;;;;;;;;;;;;18.22;81.60;100505.91;105744;1271;66808;-79
2023/08/29 09:50:51;;;;;;;;;;;;;;;18.24;81.68;100501.84;104961;1272;126013;-80
2023/08/29 09:53:19;;;;;;;;;;;;;;;18.28;81.65;100496.80;105100;1269;61501;-79
2023/08/29 09:55:46;;;;;;;;;;;;;;;18.32;81.56;100492.86;105080;1273;125417;-80
2023/08/29 09:58:15;;;;;;;;;;;;;;;18.35;81.53;100489.10;105084;1276;74855;-80
2023/08/29 10:00:41;;;;;;;;;;;;;;;18.38;81.38;100486.75;104994;1272;125494;-79
2023/08/29 10:03:09;;;;;;;;;;;;;;;18.38;81.24;100494.20;105058;1273;71493;-79
2023/08/29 10:05:36;;;;;;;;;;;;;;;18.37;81.10;100510.56;107992;1269;59197;-77
2023/08/29 10:08:23;;;;;;;;;;;;;;;18.35;81.12;100505.80;108074;1270;125051;-77
2023/08/29 10:10:53;;;;;;;;;;;;;;;18.38;81.18;100506.30;107933;1270;72372;-77
2023/08/29 10:13:20;;;;;;;;;;;;;;;18.38;81.05;100497.23;108009;1270;125553;-77
2023/08/29 10:15:47;;;;;;;;;;;;;;;18.39;80.98;100494.20;106565;1273;72673;-79
2023/08/29 10:18:14;;;;;;;;;;;;;;;18.38;81.02;100487.81;105143;1271;61213;-78
2023/08/29 10:20:44;;;;;;;;;;;;;;;18.41;80.95;100496.48;104994;1275;126723;-79
2023/08/29 10:23:11;;;;;;;;;;;;;;;18.45;81.02;100494.13;105150;1274;74644;-79
2023/08/29 10:25:39;;;;;;;;;;;;;;;18.49;80.96;100482.36;104943;1270;125545;-77
2023/08/29 10:28:09;;;;;;;;;;;;;;;18.54;81.01;100473.77;105093;1270;71835;-77
2023/08/29 10:30:38;;;;;;;;;;;;;;;18.55;80.77;100475.70;104848;1277;124993;-75
2023/08/29 10:33:04;;;;;;;;;;;;;;;18.55;80.61;100471.98;105107;1273;61397;-76
2023/08/29 10:35:32;;;;;;;;;;;;;;;18.54;80.59;100462.21;105104;1271;73214;-76
2023/08/29 10:38:07;;;;;;;;;;;;;;;18.55;80.58;100446.91;104932;1275;125040;-79
2023/08/29 10:40:35;;;;;;;;;;;;;;;18.63;80.64;100438.46;105557;1274;71854;-79
2023/08/29 10:43:02;;;;;;;;;;;;;;;18.72;80.67;100445.29;105717;1270;125822;-79
2023/08/29 10:45:48;;;;;;;;;;;;;;;18.82;80.40;100444.63;105701;1269;61217;-76
2023/08/29 10:48:18;;;;;;;;;;;;;;;18.97;80.27;100428.09;105657;1274;74451;-79
2023/08/29 10:50:51;;;;;;;;;;;;;;;19.10;80.06;100416.86;105710;1270;125157;-77
2023/08/29 10:53:21;;;;;;;;;;;;;;;19.20;79.74;100428.27;105584;1270;70987;-78
2023/08/29 10:56:07;;;;;;;;;;;;;;;19.35;79.71;100420.91;105675;1269;124849;-78
2023/08/29 10:58:38;;;;;;;;;;;;;;;19.67;79.62;100409.33;105611;1272;61201;-78
2023/08/29 11:01:05;;;;;;;;;;;;;;;19.89;78.94;100416.79;105640;1270;125428;-78
2023/08/29 11:03:39;;;;;;;;;;;;;;;19.96;78.43;100425.02;105870;1269;66156;-79
2023/08/29 11:06:06;;;;;;;;;;;;;;;20.09;78.25;100420.34;105900;1270;73565;-78
2023/08/29 11:08:35;;;;;;;;;;;;;;;20.18;77.87;100427.46;105527;1276;124979;-79
2023/08/29 11:11:21;;;;;;;;;;;;;;;20.28;77.66;100432.43;105086;1270;61266;-80
2023/08/29 11:14:00;;;;;;;;;;;;;;;20.21;76.86;100439.52;105134;1273;124847;-76
2023/08/29 11:16:28;;;;;;;;;;;;;;;20.08;76.97;100448.85;105130;1271;66061;-77
2023/08/29 11:18:58;;;;;;;;;;;;;;;20.04;77.06;100453.91;105096;1270;125116;-77
2023/08/29 11:21:24;;;;;;;;;;;;;;;20.04;77.08;100458.73;105625;1276;61464;-77
2023/08/29 11:23:53;;;;;;;;;;;;;;;20.05;76.82;100461.20;105823;1270;60146;-78
2023/08/29 11:26:20;;;;;;;;;;;;;;;19.95;76.51;100471.35;105720;1273;125211;-78
2023/08/29 11:28:47;;;;;;;;;;;;;;;19.84;76.57;100472.44;105799;1273;66611;-77
2023/08/29 11:31:18;;;;;;;;;;;;;;;19.76;76.44;100467.23;105406;1270;126005;-76
2023/08/29 11:33:46;;;;;;;;;;;;;;;19.67;76.47;100465.76;105160;1273;61336;-78
2023/08/29 11:36:13;;;;;;;;;;;;;;;19.57;76.58;100450.44;105456;1270;61410;-79
2023/08/29 11:38:39;;;;;;;;;;;;;;;19.58;77.01;100434.40;105619;1273;124912;-80
2023/08/29 11:41:06;;;;;;;;;;;;;;;19.72;77.15;100427.95;105770;1270;64052;-79
2023/08/29 11:43:33;;;;;;;;;;;;;;;19.79;76.89;100422.85;105646;1270;125252;-78
2023/08/29 11:46:03;;;;;;;;;;;;;;;19.85;76.82;100418.13;105131;1269;61375;-77
2023/08/29 11:48:31;;;;;;;;;;;;;;;19.94;76.65;100415.80;105108;1271;61449;-78
2023/08/29 11:51:01;;;;;;;;;;;;;;;20.05;76.56;100409.55;104986;1273;127392;-80
2023/08/29 11:53:32;;;;;;;;;;;;;;;20.12;76.48;100409.94;104991;1274;66459;-77
2023/08/29 11:55:59;;;;;;;;;;;;;;;20.16;76.21;100410.75;105092;1272;125217;-78
2023/08/29 11:58:26;;;;;;;;;;;;;;;20.17;76.18;100416.61;105102;1270;61348;-77
2023/08/29 12:00:53;;;;;;;;;;;;;;;20.14;75.90;100412.20;105045;1268;124628;-77
2023/08/29 12:03:21;;;;;;;;;;;;;;;20.10;75.83;100409.45;105086;1269;75644;-77
2023/08/29 12:05:48;;;;;;;;;;;;;;;19.97;75.61;100397.05;105152;1270;64718;-77
2023/08/29 12:08:15;;;;;;;;;;;;;;;19.80;75.54;100396.48;105018;1271;124964;-77
2023/08/29 12:10:52;;;;;;;;;;;;;;;19.65;75.62;100399.76;105183;1273;61333;-77
2023/08/29 12:13:19;;;;;;;;;;;;;;;19.56;76.02;100397.79;104998;1270;125013;-77
2023/08/29 12:15:45;;;;;;;;;;;;;;;19.52;76.27;100396.77;105141;1273;74397;-77
2023/08/29 12:18:19;;;;;;;;;;;;;;;19.47;76.19;100403.09;104974;1270;64941;-77
2023/08/29 12:20:47;;;;;;;;;;;;;;;19.41;76.34;100405.14;105042;1271;125008;-76
2023/08/29 12:23:23;;;;;;;;;;;;;;;19.37;76.56;100402.01;104969;1271;61252;-77
2023/08/29 12:25:49;;;;;;;;;;;;;;;19.40;76.72;100399.12;105048;1270;124836;-77